createdAt,value
2019-04-07T00:01:49.597Z,32.70
2019-04-07T00:04:18.504Z,32.23
2019-04-07T00:06:47.792Z,32.80
2019-04-07T00:09:16.840Z,33.10
2019-04-07T00:11:45.850Z,32.20
2019-04-07T00:14:14.933Z,32.63
2019-04-07T00:16:44.020Z,31.90
2019-04-07T00:19:13.684Z,31.97
2019-04-07T00:21:43.088Z,32.33
2019-04-07T00:24:12.072Z,32.13
2019-04-07T00:26:41.627Z,32.33
2019-04-07T00:29:10.995Z,33.47
2019-04-07T00:31:40.844Z,33.87
2019-04-07T00:34:10.837Z,33.07
2019-04-07T00:36:39.907Z,32.60
2019-04-07T00:39:09.529Z,33.50
2019-04-07T00:41:38.756Z,34.00
2019-04-07T00:44:07.785Z,35.03
2019-04-07T00:46:37.160Z,34.40
2019-04-07T00:49:06.448Z,33.10
2019-04-07T00:51:36.038Z,36.37
2019-04-07T00:54:05.141Z,34.77
2019-04-07T00:56:34.550Z,34.80
2019-04-07T00:59:04.314Z,34.27
2019-04-07T01:01:33.449Z,33.03
2019-04-07T01:04:02.425Z,34.07
2019-04-07T01:06:31.985Z,34.60
2019-04-07T01:09:01.183Z,35.53
2019-04-07T01:11:30.814Z,33.30
2019-04-07T01:13:59.785Z,34.10
2019-04-07T01:16:28.777Z,34.00
2019-04-07T01:18:57.970Z,35.57
2019-04-07T01:21:27.098Z,34.43
2019-04-07T01:23:56.881Z,34.73
2019-04-07T01:26:26.607Z,37.77
2019-04-07T01:28:55.687Z,35.60
2019-04-07T01:31:25.093Z,35.03
2019-04-07T01:33:54.466Z,33.67
2019-04-07T01:36:23.797Z,33.37
2019-04-07T01:38:53.292Z,34.10
2019-04-07T01:41:27.556Z,33.97
2019-04-07T01:44:14.583Z,34.83
2019-04-07T01:47:09.212Z,34.67
2019-04-07T01:50:09.534Z,34.50
2019-04-07T01:53:03.574Z,34.30
2019-04-07T01:56:00.458Z,34.80
2019-04-07T01:58:38.175Z,32.93
2019-04-07T02:01:18.894Z,35.30
2019-04-07T02:04:07.203Z,34.17
2019-04-07T02:09:55.632Z,34.70
2019-04-07T02:13:02.324Z,33.90
2019-04-07T02:15:44.697Z,34.20
2019-04-07T02:18:24.659Z,33.57
2019-04-07T02:21:03.209Z,35.43
2019-04-07T02:23:49.959Z,35.70
2019-04-07T02:26:40.683Z,35.60
2019-04-07T02:29:34.664Z,33.37
2019-04-07T02:32:10.087Z,33.20
2019-04-07T02:34:46.493Z,33.63
2019-04-07T02:37:28.460Z,33.50
2019-04-07T02:40:13.692Z,34.93
2019-04-07T02:42:46.916Z,34.67
2019-04-07T02:45:35.335Z,35.37
2019-04-07T02:48:18.012Z,35.03
2019-04-07T02:50:59.676Z,35.60
2019-04-07T02:53:41.233Z,36.63
2019-04-07T02:56:32.535Z,35.60
2019-04-07T02:59:19.808Z,36.43
2019-04-07T03:02:08.221Z,37.30
2019-04-07T03:04:56.736Z,37.83
2019-04-07T03:07:50.446Z,36.73
2019-04-07T03:10:47.682Z,35.37
2019-04-07T03:13:35.068Z,35.83
2019-04-07T03:16:24.159Z,36.37
2019-04-07T03:19:07.144Z,37.40
2019-04-07T03:21:43.677Z,37.50
2019-04-07T03:24:19.721Z,37.33
2019-04-07T03:27:06.626Z,38.00
2019-04-07T03:29:45.762Z,37.00
2019-04-07T03:32:28.688Z,35.70
2019-04-07T03:35:17.255Z,37.87
2019-04-07T03:38:03.158Z,38.17
2019-04-07T03:41:03.365Z,35.23
2019-04-07T03:43:44.053Z,35.57
2019-04-07T03:46:18.464Z,35.37
2019-04-07T03:49:02.797Z,36.43
2019-04-07T03:51:37.850Z,36.27
2019-04-07T03:54:38.310Z,36.07
2019-04-07T03:57:18.425Z,37.40
2019-04-07T04:00:15.265Z,35.93
2019-04-07T04:02:53.527Z,36.43
2019-04-07T04:05:29.662Z,34.83
2019-04-07T04:08:08.264Z,38.00
2019-04-07T04:10:50.215Z,36.57
2019-04-07T04:13:29.026Z,35.13
2019-04-07T04:16:02.909Z,35.87
2019-04-07T04:18:31.473Z,35.77
2019-04-07T04:20:59.990Z,36.17
2019-04-07T04:23:28.586Z,34.80
2019-04-07T04:25:57.140Z,35.80
2019-04-07T04:28:25.627Z,36.17
2019-04-07T04:30:54.119Z,35.17
2019-04-07T04:33:23.484Z,35.80
2019-04-07T04:35:52.650Z,35.57
2019-04-07T04:38:21.633Z,36.33
2019-04-07T04:40:50.760Z,37.50
2019-04-07T04:43:19.896Z,37.77
2019-04-07T04:45:49.062Z,35.83
2019-04-07T04:48:17.954Z,36.60
2019-04-07T04:50:47.329Z,37.40
2019-04-07T04:53:17.123Z,37.63
2019-04-07T04:55:47.099Z,37.60
2019-04-07T04:58:17.311Z,37.77
2019-04-07T05:00:46.693Z,36.47
2019-04-07T05:03:16.000Z,37.83
2019-04-07T05:05:45.712Z,38.50
2019-04-07T05:08:14.744Z,36.20
2019-04-07T05:10:44.014Z,36.93
2019-04-07T05:13:12.871Z,36.70
2019-04-07T05:15:42.015Z,36.37
2019-04-07T05:18:11.110Z,35.13
2019-04-07T05:20:40.076Z,36.67
2019-04-07T05:23:09.821Z,37.53
2019-04-07T05:25:39.137Z,38.70
2019-04-07T05:28:08.998Z,36.43
2019-04-07T05:30:38.115Z,34.90
2019-04-07T05:33:07.124Z,34.77
2019-04-07T05:35:36.314Z,34.37
2019-04-07T05:38:06.738Z,32.50
2019-04-07T05:40:36.687Z,33.27
2019-04-07T05:43:06.294Z,32.43
2019-04-07T05:45:36.664Z,32.30
2019-04-07T05:48:06.454Z,32.50
2019-04-07T05:50:36.041Z,32.23
2019-04-07T05:53:06.822Z,32.50
2019-04-07T05:55:35.867Z,33.17
2019-04-07T05:58:07.036Z,31.93
2019-04-07T06:00:36.171Z,32.73
2019-04-07T06:03:08.236Z,34.27
2019-04-07T06:05:36.832Z,32.13
2019-04-07T06:08:21.046Z,34.97
2019-04-07T06:10:37.071Z,35.30
2019-04-07T06:13:06.170Z,34.57
2019-04-07T06:15:35.719Z,34.30
2019-04-07T06:18:05.143Z,34.87
2019-04-07T06:20:34.371Z,33.97
2019-04-07T06:23:03.898Z,33.73
2019-04-07T06:25:36.978Z,34.00
2019-04-07T06:28:04.248Z,33.33
2019-04-07T06:30:35.843Z,34.80
2019-04-07T06:33:06.953Z,33.00
2019-04-07T06:35:34.887Z,33.77
2019-04-07T06:38:06.631Z,33.30
2019-04-07T06:40:34.787Z,32.77
2019-04-07T06:43:05.265Z,32.63
2019-04-07T06:45:45.329Z,32.67
2019-04-07T06:48:14.908Z,31.60
2019-04-07T06:50:56.644Z,30.83
2019-04-07T06:53:28.001Z,30.83
2019-04-07T06:56:06.011Z,29.67
2019-04-07T06:58:54.740Z,29.83
2019-04-07T07:01:49.322Z,30.90
2019-04-07T07:04:41.097Z,31.20
2019-04-07T07:07:34.625Z,30.40
2019-04-07T07:10:27.448Z,29.50
2019-04-07T07:13:09.593Z,27.67
2019-04-07T07:16:00.309Z,27.20
2019-04-07T07:18:47.200Z,27.67
2019-04-07T07:21:39.577Z,26.23
2019-04-07T07:24:08.706Z,26.23
2019-04-07T07:26:38.437Z,27.00
2019-04-07T07:29:08.343Z,25.87
2019-04-07T07:31:37.950Z,25.27
2019-04-07T07:34:09.297Z,24.17
2019-04-07T07:36:38.287Z,23.97
2019-04-07T07:39:11.385Z,23.40
2019-04-07T07:41:38.880Z,24.33
2019-04-07T07:44:09.489Z,25.23
2019-04-07T07:46:38.707Z,24.00
2019-04-07T07:49:07.901Z,24.70
2019-04-07T07:51:38.642Z,23.80
2019-04-07T07:54:07.685Z,23.07
2019-04-07T07:56:36.780Z,24.50
2019-04-07T07:59:06.249Z,23.83
2019-04-07T08:01:35.459Z,23.00
2019-04-07T08:04:05.237Z,23.27
2019-04-07T08:06:34.645Z,24.27
2019-04-07T08:09:13.807Z,23.20
2019-04-07T08:11:38.981Z,22.57
2019-04-07T08:14:08.833Z,22.47
2019-04-07T08:16:37.866Z,22.00
2019-04-07T08:19:09.330Z,20.93
2019-04-07T08:21:38.089Z,20.53
2019-04-07T08:24:08.017Z,20.83
2019-04-07T08:26:37.193Z,20.23
2019-04-07T08:29:07.722Z,19.60
2019-04-07T08:31:37.263Z,19.97
2019-04-07T08:34:06.505Z,19.30
2019-04-07T08:36:35.557Z,19.73
2019-04-07T08:39:18.541Z,19.57
2019-04-07T08:41:41.139Z,18.57
2019-04-07T08:44:08.390Z,18.93
2019-04-07T08:46:41.626Z,17.40
2019-04-07T08:49:08.696Z,17.10
2019-04-07T08:51:38.018Z,18.17
2019-04-07T08:54:07.339Z,17.07
2019-04-07T08:56:37.671Z,16.90
2019-04-07T08:59:10.026Z,15.33
2019-04-07T09:01:37.846Z,16.63
2019-04-07T09:04:07.647Z,16.47
2019-04-07T09:06:37.434Z,15.77
2019-04-07T09:09:08.107Z,15.60
2019-04-07T09:11:39.927Z,15.17
2019-04-07T09:14:08.685Z,15.60
2019-04-07T09:17:00.512Z,15.97
2019-04-07T09:19:42.334Z,14.83
2019-04-07T09:22:20.097Z,14.50
2019-04-07T09:25:10.843Z,14.93
2019-04-07T09:28:02.181Z,15.03
2019-04-07T09:31:08.846Z,14.87
2019-04-07T09:34:00.139Z,13.93
2019-04-07T09:36:47.902Z,13.83
2019-04-07T09:39:52.835Z,13.93
2019-04-07T09:42:25.800Z,12.87
2019-04-07T09:45:12.878Z,14.17
2019-04-07T09:48:02.142Z,14.30
2019-04-07T09:51:07.295Z,13.67
2019-04-07T09:54:01.513Z,14.17
2019-04-07T09:56:48.467Z,14.03
2019-04-07T09:59:35.419Z,13.80
2019-04-07T10:02:35.469Z,13.40
2019-04-07T10:05:35.058Z,14.17
2019-04-07T10:08:26.347Z,13.47
2019-04-07T10:11:17.244Z,14.23
2019-04-07T10:13:54.067Z,14.37
2019-04-07T10:16:45.779Z,15.43
2019-04-07T10:19:32.829Z,15.50
2019-04-07T10:22:26.684Z,15.70
2019-04-07T10:25:10.824Z,16.47
2019-04-07T10:27:49.510Z,17.30
2019-04-07T10:30:41.511Z,17.30
2019-04-07T10:33:25.815Z,16.97
2019-04-07T10:36:23.156Z,16.23
2019-04-07T10:39:14.437Z,16.90
2019-04-07T10:42:08.934Z,16.37
2019-04-07T10:45:12.070Z,17.03
2019-04-07T10:48:04.455Z,17.93
2019-04-07T10:50:51.804Z,17.10
2019-04-07T10:53:52.716Z,18.27
2019-04-07T10:56:26.675Z,19.10
2019-04-07T10:59:14.687Z,18.00
2019-04-07T11:01:50.131Z,18.00
2019-04-07T11:04:37.620Z,17.00
2019-04-07T11:07:25.878Z,16.57
2019-04-07T11:10:30.618Z,16.23
2019-04-07T11:13:04.408Z,15.60
2019-04-07T11:16:08.215Z,16.93
2019-04-07T11:18:55.340Z,17.17
2019-04-07T11:21:50.246Z,16.67
2019-04-07T11:24:31.463Z,15.90
2019-04-07T11:27:25.577Z,16.60
2019-04-07T11:30:03.917Z,17.10
2019-04-07T11:32:48.569Z,16.73
2019-04-07T11:35:36.914Z,17.07
2019-04-07T11:38:25.607Z,16.20
2019-04-07T11:41:17.079Z,16.73
2019-04-07T11:43:57.474Z,16.37
2019-04-07T11:46:51.934Z,15.20
2019-04-07T11:49:44.706Z,16.20
2019-04-07T11:52:24.919Z,15.33
2019-04-07T11:55:26.811Z,15.53
2019-04-07T11:58:16.532Z,15.43
2019-04-07T12:01:15.551Z,15.13
2019-04-07T12:03:55.857Z,15.80
2019-04-07T12:06:46.569Z,15.77
2019-04-07T12:09:37.054Z,14.47
2019-04-07T12:12:24.507Z,16.53
2019-04-07T12:15:15.786Z,15.80
2019-04-07T12:17:55.698Z,16.83
2019-04-07T12:20:42.238Z,15.93
2019-04-07T12:23:22.870Z,14.97
2019-04-07T12:26:12.845Z,13.50
2019-04-07T12:29:04.016Z,13.37
2019-04-07T12:31:59.739Z,13.93
2019-04-07T12:34:49.593Z,13.83
2019-04-07T12:37:27.384Z,12.70
2019-04-07T12:40:03.139Z,13.87
2019-04-07T12:42:40.301Z,14.90
2019-04-07T12:45:28.395Z,14.23
2019-04-07T12:48:11.306Z,14.80
2019-04-07T12:50:59.034Z,14.20
2019-04-07T12:53:50.144Z,13.23
2019-04-07T12:56:31.709Z,14.37
2019-04-07T12:59:27.204Z,14.67
2019-04-07T13:02:12.495Z,15.10
2019-04-07T13:05:03.553Z,15.83
2019-04-07T13:07:50.259Z,16.53
2019-04-07T13:10:39.615Z,15.07
2019-04-07T13:13:30.214Z,15.80
2019-04-07T13:16:17.666Z,16.03
2019-04-07T13:19:15.613Z,15.03
2019-04-07T13:22:07.909Z,16.97
2019-04-07T13:24:57.004Z,15.30
2019-04-07T13:27:39.073Z,14.80
2019-04-07T13:30:37.394Z,15.43
2019-04-07T13:33:29.562Z,15.07
2019-04-07T13:36:17.739Z,15.43
2019-04-07T13:39:09.886Z,14.87
2019-04-07T13:42:01.127Z,13.57
2019-04-07T13:44:49.446Z,12.83
2019-04-07T13:47:34.062Z,13.07
2019-04-07T13:50:29.994Z,13.43
2019-04-07T13:53:11.108Z,13.27
2019-04-07T13:55:55.285Z,13.20
2019-04-07T13:58:49.272Z,13.50
2019-04-07T14:01:34.695Z,12.27
2019-04-07T14:04:25.194Z,13.50
2019-04-07T14:07:12.049Z,14.20
2019-04-07T14:10:09.119Z,14.67
2019-04-07T14:13:19.744Z,14.67
2019-04-07T14:16:07.456Z,13.40
2019-04-07T14:18:54.506Z,12.57
2019-04-07T14:21:32.439Z,14.27
2019-04-07T14:24:09.318Z,14.37
2019-04-07T14:27:02.153Z,11.40
2019-04-07T14:30:08.873Z,10.63
2019-04-07T14:33:03.443Z,11.23
2019-04-07T14:35:55.375Z,12.07
2019-04-07T14:38:43.045Z,13.80
2019-04-07T14:41:41.160Z,12.47
2019-04-07T14:44:32.109Z,11.83
2019-04-07T14:47:21.836Z,10.20
2019-04-07T14:50:14.554Z,10.63
2019-04-07T14:52:55.337Z,12.57
2019-04-07T14:55:39.960Z,13.77
2019-04-07T14:58:31.419Z,15.10
2019-04-07T15:01:19.149Z,15.33
2019-04-07T15:03:48.305Z,14.03
2019-04-07T15:06:17.398Z,15.43
2019-04-07T15:09:17.631Z,15.13
2019-04-07T15:11:55.294Z,14.70
2019-04-07T15:14:24.306Z,13.53
2019-04-07T15:16:53.536Z,14.57
2019-04-07T15:19:23.383Z,15.27
2019-04-07T15:21:54.954Z,16.47
2019-04-07T15:24:23.934Z,15.23
2019-04-07T15:26:53.883Z,15.47
2019-04-07T15:29:23.252Z,14.43
2019-04-07T15:31:53.118Z,14.90
2019-04-07T15:34:22.984Z,15.20
2019-04-07T15:36:52.446Z,16.43
2019-04-07T15:39:21.580Z,15.73
2019-04-07T15:41:51.014Z,15.77
2019-04-07T15:44:20.748Z,15.27
2019-04-07T15:46:53.280Z,14.33
2019-04-07T15:49:21.520Z,15.47
2019-04-07T15:51:51.342Z,15.10
2019-04-07T15:54:23.355Z,14.20
2019-04-07T15:56:51.601Z,15.27
2019-04-07T15:59:20.715Z,14.37
2019-04-07T16:01:49.776Z,13.67
2019-04-07T16:04:25.175Z,13.07
2019-04-07T16:06:50.618Z,14.33
2019-04-07T16:09:31.460Z,14.93
2019-04-07T16:11:51.878Z,14.73
2019-04-07T16:14:21.965Z,15.23
2019-04-07T16:16:51.715Z,14.33
2019-04-07T16:19:34.156Z,13.37
2019-04-07T16:21:52.872Z,13.80
2019-04-07T16:24:22.777Z,13.40
2019-04-07T16:26:52.651Z,13.23
2019-04-07T16:29:22.028Z,14.03
2019-04-07T16:31:51.829Z,13.23
2019-04-07T16:34:21.100Z,15.00
2019-04-07T16:36:51.697Z,12.97
2019-04-07T16:39:21.192Z,12.00
2019-04-07T16:41:50.263Z,13.33
2019-04-07T16:44:19.315Z,13.07
2019-04-07T16:46:48.941Z,12.80
2019-04-07T16:49:19.280Z,12.70
2019-04-07T16:51:49.401Z,13.43
2019-04-07T16:54:18.605Z,12.57
2019-04-07T16:56:50.810Z,13.53
2019-04-07T16:59:19.396Z,13.50
2019-04-07T17:01:48.601Z,13.57
2019-04-07T17:04:17.586Z,12.80
2019-04-07T17:06:46.718Z,12.93
2019-04-07T17:09:22.416Z,13.43
2019-04-07T17:11:50.386Z,13.53
2019-04-07T17:14:19.620Z,12.87
2019-04-07T17:16:48.929Z,12.50
2019-04-07T17:19:18.256Z,13.07
2019-04-07T17:21:47.246Z,14.93
2019-04-07T17:24:16.225Z,14.17
2019-04-07T17:26:45.498Z,15.60
2019-04-07T17:29:19.080Z,13.60
2019-04-07T17:31:45.643Z,13.13
2019-04-07T17:34:15.636Z,13.30
2019-04-07T17:36:48.445Z,13.67
2019-04-07T17:39:44.953Z,14.80
2019-04-07T17:42:15.637Z,14.23
2019-04-07T17:44:56.416Z,14.23
2019-04-07T17:47:36.712Z,14.23
2019-04-07T17:50:29.350Z,13.47
2019-04-07T17:53:10.036Z,13.90
2019-04-07T17:56:01.068Z,13.73
2019-04-07T17:58:44.570Z,13.93
2019-04-07T18:01:48.047Z,13.40
2019-04-07T18:04:53.641Z,13.37
2019-04-07T18:07:54.353Z,13.43
2019-04-07T18:10:30.698Z,13.37
2019-04-07T18:13:24.706Z,13.07
2019-04-07T18:16:24.446Z,13.13
2019-04-07T18:19:01.648Z,13.80
2019-04-07T18:21:59.679Z,13.80
2019-04-07T18:24:38.807Z,13.83
2019-04-07T18:27:38.804Z,13.70
2019-04-07T18:30:29.827Z,16.07
2019-04-07T18:33:05.435Z,15.27
2019-04-07T18:35:56.279Z,14.23
2019-04-07T18:38:46.980Z,13.23
2019-04-07T18:41:35.849Z,14.13
2019-04-07T18:44:20.495Z,13.27
2019-04-07T18:47:06.871Z,13.87
2019-04-07T18:49:53.893Z,14.17
2019-04-07T18:52:32.519Z,14.63
2019-04-07T18:55:30.043Z,14.97
2019-04-07T18:58:15.339Z,13.53
2019-04-07T19:01:17.026Z,13.40
2019-04-07T19:04:17.760Z,12.80
2019-04-07T19:07:16.690Z,13.43
2019-04-07T19:10:09.779Z,14.40
2019-04-07T19:13:08.063Z,16.43
2019-04-07T19:16:01.924Z,16.43
2019-04-07T19:18:50.754Z,13.63
2019-04-07T19:21:27.871Z,13.17
2019-04-07T19:24:19.563Z,12.20
2019-04-07T19:27:15.058Z,12.93
2019-04-07T19:29:58.461Z,12.73
2019-04-07T19:32:40.561Z,12.53
2019-04-07T19:35:30.339Z,12.67
2019-04-07T19:38:20.948Z,11.93
2019-04-07T19:41:01.417Z,11.93
2019-04-07T19:43:49.997Z,12.20
2019-04-07T19:46:44.749Z,12.10
2019-04-07T19:49:36.645Z,12.00
2019-04-07T19:52:34.230Z,12.13
2019-04-07T19:55:08.753Z,11.90
2019-04-07T19:58:03.963Z,11.97
2019-04-07T20:01:04.247Z,12.00
2019-04-07T20:03:51.752Z,11.63
2019-04-07T20:06:34.113Z,11.73
2019-04-07T20:09:15.243Z,12.27
2019-04-07T20:12:02.837Z,12.20
2019-04-07T20:14:58.538Z,11.37
2019-04-07T20:17:41.582Z,12.13
2019-04-07T20:20:30.261Z,12.57
2019-04-07T20:23:06.403Z,13.07
2019-04-07T20:25:49.311Z,13.33
2019-04-07T20:28:32.469Z,11.80
2019-04-07T20:31:12.795Z,12.93
2019-04-07T20:34:06.039Z,13.30
2019-04-07T20:36:46.231Z,13.40
2019-04-07T20:39:37.205Z,13.93
2019-04-07T20:42:17.388Z,14.87
2019-04-07T20:45:16.344Z,13.87
2019-04-07T20:48:21.277Z,13.50
2019-04-07T20:51:08.748Z,13.93
2019-04-07T20:54:03.447Z,13.90
2019-04-07T20:56:49.862Z,14.07
2019-04-07T20:59:51.060Z,14.37
2019-04-07T21:02:33.665Z,14.77
2019-04-07T21:05:24.713Z,14.60
2019-04-07T21:08:10.375Z,14.10
2019-04-07T21:11:08.118Z,14.83
2019-04-07T21:13:50.660Z,13.27
2019-04-07T21:16:33.934Z,13.40
2019-04-07T21:19:27.897Z,13.40
2019-04-07T21:22:06.688Z,13.23
2019-04-07T21:24:43.443Z,13.73
2019-04-07T21:27:36.069Z,13.40
2019-04-07T21:30:34.664Z,14.30
2019-04-07T21:33:32.495Z,13.60
2019-04-07T21:36:23.718Z,13.40
2019-04-07T21:39:10.651Z,14.57
2019-04-07T21:41:58.844Z,14.10
2019-04-07T21:44:47.642Z,13.90
2019-04-07T21:47:33.080Z,14.53
2019-04-07T21:50:30.789Z,14.53
2019-04-07T21:53:10.154Z,14.27
2019-04-07T21:56:01.751Z,14.30
2019-04-07T21:58:54.945Z,14.43
2019-04-07T22:01:37.695Z,14.00
2019-04-07T22:04:19.951Z,13.47
2019-04-07T22:07:06.022Z,15.00
2019-04-07T22:09:39.278Z,15.67
2019-04-07T22:12:08.523Z,14.63
2019-04-07T22:14:40.591Z,14.67
2019-04-07T22:17:09.424Z,15.13
2019-04-07T22:19:43.267Z,14.50
2019-04-07T22:22:09.337Z,15.60
2019-04-07T22:24:39.510Z,15.70
2019-04-07T22:27:09.114Z,15.00
2019-04-07T22:29:38.261Z,16.77
2019-04-07T22:32:07.579Z,15.97
2019-04-07T22:34:37.634Z,16.00
2019-04-07T22:37:06.837Z,15.33
2019-04-07T22:39:36.112Z,15.93
2019-04-07T22:42:05.158Z,15.37
2019-04-07T22:44:34.213Z,15.87
2019-04-07T22:47:03.110Z,15.90
2019-04-07T22:49:32.501Z,16.10
2019-04-07T22:52:01.750Z,15.80
2019-04-07T22:54:31.258Z,16.53
2019-04-07T22:57:00.748Z,15.93
2019-04-07T22:59:30.260Z,16.37
2019-04-07T23:01:59.859Z,16.57
2019-04-07T23:04:29.988Z,16.43
2019-04-07T23:06:59.093Z,15.40
2019-04-07T23:09:28.051Z,16.63
2019-04-07T23:11:57.114Z,17.00
2019-04-07T23:14:26.070Z,17.23
2019-04-07T23:16:55.972Z,16.57
2019-04-07T23:19:25.360Z,18.53
2019-04-07T23:21:54.317Z,17.13
2019-04-07T23:24:23.242Z,16.77
2019-04-07T23:26:52.293Z,16.40
2019-04-07T23:29:21.877Z,16.93
2019-04-07T23:31:51.332Z,17.33
2019-04-07T23:34:21.116Z,17.30
2019-04-07T23:36:50.269Z,17.73
2019-04-07T23:39:19.536Z,16.83
2019-04-07T23:41:49.068Z,17.20
2019-04-07T23:44:18.305Z,18.10
2019-04-07T23:46:47.750Z,17.80
2019-04-07T23:49:16.817Z,18.00
2019-04-07T23:51:45.974Z,17.57
2019-04-07T23:54:16.424Z,17.17
2019-04-07T23:56:45.779Z,16.60
2019-04-07T23:59:14.891Z,17.57
